createdAt,value
2023-01-26T00:01:29.869Z,1.30
2023-01-26T00:03:57.372Z,1.30
2023-01-26T00:06:24.984Z,1.20
2023-01-26T00:08:53.246Z,1.30
2023-01-26T00:11:26.704Z,1.40
2023-01-26T00:13:54.477Z,1.40
2023-01-26T00:16:21.328Z,1.30
2023-01-26T00:18:47.857Z,1.20
2023-01-26T00:21:20.389Z,1.20
2023-01-26T00:23:48.071Z,1.20
2023-01-26T00:26:17.599Z,1.20
2023-01-26T00:28:44.341Z,1.20
2023-01-26T00:31:14.372Z,1.20
2023-01-26T00:33:41.262Z,1.10
2023-01-26T00:36:10.419Z,1.20
2023-01-26T00:38:37.326Z,1.10
2023-01-26T00:41:03.966Z,1.10
2023-01-26T00:43:30.614Z,1.30
2023-01-26T00:45:57.232Z,1.50
2023-01-26T00:48:24.888Z,1.60
2023-01-26T00:50:52.202Z,1.60
2023-01-26T00:53:18.920Z,1.70
2023-01-26T00:55:45.780Z,1.70
2023-01-26T00:58:12.354Z,1.70
2023-01-26T01:00:39.058Z,1.70
2023-01-26T01:03:06.485Z,1.60
2023-01-26T01:05:33.926Z,1.60
2023-01-26T01:08:00.576Z,1.50
2023-01-26T01:10:28.189Z,1.60
2023-01-26T01:12:55.196Z,1.60
2023-01-26T01:15:23.662Z,1.50
2023-01-26T01:17:50.339Z,1.60
2023-01-26T01:20:17.179Z,1.60
2023-01-26T01:22:43.688Z,1.50
2023-01-26T01:25:10.744Z,1.40
2023-01-26T01:27:37.375Z,1.50
2023-01-26T01:30:08.243Z,1.60
2023-01-26T01:32:39.974Z,1.40
2023-01-26T01:35:21.745Z,1.30
2023-01-26T01:37:48.527Z,1.10
2023-01-26T01:40:15.140Z,1.10
2023-01-26T01:42:50.870Z,1.10
2023-01-26T01:45:26.751Z,1.20
2023-01-26T01:47:56.856Z,1.20
2023-01-26T01:50:24.861Z,1.20
2023-01-26T01:52:52.562Z,1.30
2023-01-26T01:55:19.604Z,1.30
2023-01-26T01:57:53.615Z,1.30
2023-01-26T02:00:22.871Z,1.30
2023-01-26T02:03:24.164Z,1.20
2023-01-26T02:10:18.851Z,0.90
2023-01-26T02:12:47.602Z,1.00
2023-01-26T02:15:14.454Z,1.00
2023-01-26T02:17:41.540Z,1.00
2023-01-26T02:20:28.529Z,1.10
2023-01-26T02:23:32.799Z,1.20
2023-01-26T02:26:03.909Z,1.10
2023-01-26T02:28:30.548Z,0.90
2023-01-26T02:30:57.596Z,0.80
2023-01-26T02:33:27.823Z,0.70
2023-01-26T02:35:59.155Z,0.70
2023-01-26T02:38:33.775Z,0.80
2023-01-26T02:41:05.815Z,0.90
2023-01-26T02:43:32.484Z,0.90
2023-01-26T02:45:59.173Z,0.80
2023-01-26T02:48:45.257Z,0.70
2023-01-26T02:51:11.932Z,0.60
2023-01-26T02:53:38.612Z,0.60
2023-01-26T02:56:05.431Z,0.60
2023-01-26T02:58:33.033Z,0.70
2023-01-26T03:00:59.607Z,1.00
2023-01-26T03:03:45.145Z,1.10
2023-01-26T03:06:22.360Z,1.00
2023-01-26T03:08:49.353Z,1.00
2023-01-26T03:11:15.864Z,1.10
2023-01-26T03:13:42.310Z,1.20
2023-01-26T03:16:10.206Z,1.30
2023-01-26T03:18:55.430Z,1.30
2023-01-26T03:21:41.144Z,1.20
2023-01-26T03:24:32.868Z,1.10
2023-01-26T03:27:20.396Z,1.20
2023-01-26T03:29:46.976Z,1.30
2023-01-26T03:32:14.025Z,1.30
2023-01-26T03:34:42.201Z,1.30
2023-01-26T03:37:09.129Z,1.40
2023-01-26T03:40:05.948Z,1.30
2023-01-26T03:42:53.153Z,1.40
2023-01-26T03:45:39.458Z,1.50
2023-01-26T03:48:27.484Z,1.60
2023-01-26T03:51:16.650Z,1.60
2023-01-26T03:54:02.249Z,1.50
2023-01-26T03:56:32.464Z,1.40
2023-01-26T03:59:12.222Z,1.30
2023-01-26T04:02:03.078Z,1.30
2023-01-26T04:04:49.216Z,1.40
2023-01-26T04:07:34.968Z,1.50
2023-01-26T04:10:02.223Z,1.40
2023-01-26T04:12:30.943Z,1.30
2023-01-26T04:15:27.856Z,1.30
2023-01-26T04:18:13.028Z,1.40
2023-01-26T04:20:58.189Z,1.40
2023-01-26T04:23:24.742Z,1.40
2023-01-26T04:25:51.644Z,1.30
2023-01-26T04:28:18.308Z,1.20
2023-01-26T04:30:46.336Z,1.20
2023-01-26T04:33:13.504Z,1.30
2023-01-26T04:35:40.308Z,1.30
2023-01-26T04:38:06.997Z,1.40
2023-01-26T04:40:33.726Z,1.50
2023-01-26T04:43:00.178Z,1.60
2023-01-26T04:45:26.633Z,1.60
2023-01-26T04:47:54.650Z,1.70
2023-01-26T04:50:21.182Z,1.50
2023-01-26T04:52:47.735Z,1.40
2023-01-26T04:55:15.420Z,1.30
2023-01-26T04:57:42.976Z,1.30
2023-01-26T05:00:12.176Z,1.50
2023-01-26T05:02:40.278Z,1.50
2023-01-26T05:05:08.306Z,1.50
2023-01-26T05:07:34.808Z,1.50
2023-01-26T05:10:02.637Z,1.50
2023-01-26T05:12:49.326Z,1.50
2023-01-26T05:15:32.360Z,1.60
2023-01-26T05:18:12.702Z,1.60
2023-01-26T05:21:09.549Z,1.60
2023-01-26T05:23:41.011Z,1.50
2023-01-26T05:26:42.763Z,1.50
2023-01-26T05:29:13.538Z,1.40
2023-01-26T05:31:41.090Z,1.50
2023-01-26T05:34:08.206Z,1.50
2023-01-26T05:36:36.323Z,1.50
2023-01-26T05:39:02.989Z,1.50
2023-01-26T05:41:30.471Z,1.60
2023-01-26T05:44:17.169Z,1.60
2023-01-26T05:46:48.788Z,1.50
2023-01-26T05:49:15.328Z,1.50
2023-01-26T05:51:41.959Z,1.40
2023-01-26T05:54:08.496Z,1.30
2023-01-26T05:56:35.053Z,1.30
2023-01-26T05:59:03.992Z,1.30
2023-01-26T06:01:30.808Z,1.30
2023-01-26T06:04:01.941Z,1.40
2023-01-26T06:06:35.740Z,1.30
2023-01-26T06:09:17.165Z,1.30
2023-01-26T06:12:00.268Z,1.30
2023-01-26T06:14:47.336Z,1.30
2023-01-26T06:17:16.150Z,1.30
2023-01-26T06:19:43.088Z,1.30
2023-01-26T06:22:11.507Z,1.30
2023-01-26T06:24:40.305Z,1.30
2023-01-26T06:27:11.748Z,1.30
2023-01-26T06:29:38.300Z,1.30
2023-01-26T06:32:04.991Z,1.30
2023-01-26T06:34:32.438Z,1.30
2023-01-26T06:36:59.237Z,1.30
2023-01-26T06:39:30.061Z,1.30
2023-01-26T06:41:58.329Z,1.20
2023-01-26T06:44:24.860Z,1.20
2023-01-26T06:46:51.352Z,1.20
2023-01-26T06:49:18.641Z,1.20
2023-01-26T06:51:52.847Z,1.20
2023-01-26T06:54:20.204Z,1.20
2023-01-26T06:57:01.995Z,1.20
2023-01-26T06:59:49.742Z,1.20
2023-01-26T07:02:33.279Z,1.10
2023-01-26T07:04:59.703Z,1.10
2023-01-26T07:07:26.144Z,1.10
2023-01-26T07:09:52.585Z,1.00
2023-01-26T07:12:19.038Z,1.00
2023-01-26T07:14:45.634Z,1.20
2023-01-26T07:17:12.385Z,1.20
2023-01-26T07:19:38.963Z,1.00
2023-01-26T07:22:05.461Z,1.00
2023-01-26T07:24:31.917Z,1.00
2023-01-26T07:26:58.854Z,1.00
2023-01-26T07:29:25.298Z,0.90
2023-01-26T07:31:51.793Z,0.80
2023-01-26T07:34:18.312Z,0.80
2023-01-26T07:36:45.438Z,0.70
2023-01-26T07:39:12.140Z,0.60
2023-01-26T07:41:38.644Z,0.60
2023-01-26T07:44:24.060Z,0.70
2023-01-26T07:46:50.499Z,0.70
2023-01-26T07:49:17.101Z,0.70
2023-01-26T07:51:43.509Z,0.70
2023-01-26T07:54:11.172Z,0.70
2023-01-26T07:56:37.604Z,0.60
2023-01-26T07:59:04.351Z,0.60
2023-01-26T08:01:31.031Z,0.60
2023-01-26T08:03:57.856Z,0.60
2023-01-26T08:06:25.238Z,0.60
2023-01-26T08:08:53.863Z,0.60
2023-01-26T08:11:22.805Z,0.40
2023-01-26T08:13:49.436Z,0.50
2023-01-26T08:16:15.919Z,0.50
2023-01-26T08:18:43.737Z,0.50
2023-01-26T08:21:11.679Z,0.50
2023-01-26T08:23:38.140Z,0.50
2023-01-26T08:26:07.648Z,0.50
2023-01-26T08:28:34.623Z,0.40
2023-01-26T08:31:12.921Z,0.40
2023-01-26T08:33:42.029Z,0.40
2023-01-26T08:36:11.840Z,0.50
2023-01-26T08:38:38.654Z,0.40
2023-01-26T08:41:05.337Z,0.50
2023-01-26T08:43:31.819Z,0.60
2023-01-26T08:45:58.796Z,0.40
2023-01-26T08:48:25.276Z,0.40
2023-01-26T08:50:57.691Z,0.50
2023-01-26T08:53:24.639Z,0.50
2023-01-26T08:55:51.568Z,0.40
2023-01-26T08:58:18.619Z,0.40
2023-01-26T09:00:45.105Z,0.50
2023-01-26T09:03:12.205Z,0.50
2023-01-26T09:05:40.047Z,0.40
2023-01-26T09:08:09.084Z,0.40
2023-01-26T09:10:37.834Z,0.20
2023-01-26T09:13:04.268Z,0.10
2023-01-26T09:15:31.692Z,0.10
2023-01-26T09:18:00.751Z,0.20
2023-01-26T09:20:28.414Z,0.20
2023-01-26T09:22:54.876Z,0.10
2023-01-26T09:25:21.343Z,0.10
2023-01-26T09:27:47.798Z,0.20
2023-01-26T09:30:14.691Z,0.30
2023-01-26T09:32:41.147Z,0.40
2023-01-26T09:35:14.251Z,0.50
2023-01-26T09:37:41.211Z,0.60
2023-01-26T09:40:16.955Z,0.70
2023-01-26T09:43:20.512Z,0.40
2023-01-26T09:46:21.537Z,0.30
2023-01-26T09:49:08.739Z,0.40
2023-01-26T09:51:38.556Z,0.50
2023-01-26T09:54:05.380Z,0.60
2023-01-26T09:56:35.232Z,0.70
2023-01-26T09:59:24.674Z,0.80
2023-01-26T10:02:16.080Z,0.80
2023-01-26T10:04:46.030Z,0.60
2023-01-26T10:07:15.841Z,0.70
2023-01-26T10:09:50.308Z,0.80
2023-01-26T10:12:25.097Z,0.80
2023-01-26T10:15:06.374Z,0.80
2023-01-26T10:17:41.520Z,0.80
2023-01-26T10:20:15.557Z,0.90
2023-01-26T10:22:48.359Z,0.90
2023-01-26T10:25:25.387Z,0.70
2023-01-26T10:27:52.636Z,0.70
2023-01-26T10:30:20.595Z,0.70
2023-01-26T10:32:51.475Z,0.60
2023-01-26T10:35:23.440Z,0.50
2023-01-26T10:37:52.778Z,0.50
2023-01-26T10:40:19.591Z,0.60
2023-01-26T10:42:57.918Z,0.90
2023-01-26T10:45:32.526Z,0.90
2023-01-26T10:48:24.038Z,0.80
2023-01-26T10:50:51.192Z,0.70
2023-01-26T10:53:24.349Z,0.80
2023-01-26T10:56:03.208Z,0.80
2023-01-26T10:58:41.679Z,0.80
2023-01-26T11:01:12.292Z,0.70
2023-01-26T11:03:39.599Z,0.60
2023-01-26T11:06:16.092Z,0.60
2023-01-26T11:08:42.950Z,0.50
2023-01-26T11:11:29.931Z,0.50
2023-01-26T11:14:16.319Z,0.60
2023-01-26T11:16:50.011Z,0.70
2023-01-26T11:19:37.781Z,0.80
2023-01-26T11:22:13.200Z,0.90
2023-01-26T11:24:47.595Z,1.10
2023-01-26T11:27:36.707Z,1.20
2023-01-26T11:30:40.769Z,1.10
2023-01-26T11:33:28.961Z,1.30
2023-01-26T11:36:22.511Z,1.30
2023-01-26T11:39:16.885Z,1.30
2023-01-26T11:42:07.242Z,1.30
2023-01-26T11:44:55.173Z,1.20
2023-01-26T11:47:24.575Z,1.40
2023-01-26T11:50:02.782Z,1.50
2023-01-26T11:52:29.174Z,1.50
2023-01-26T11:55:22.023Z,1.60
2023-01-26T11:58:07.102Z,1.60
2023-01-26T12:00:41.547Z,1.40
2023-01-26T12:03:44.352Z,1.20
2023-01-26T12:06:28.669Z,1.20
2023-01-26T12:09:01.638Z,1.30
2023-01-26T12:11:38.714Z,1.30
2023-01-26T12:14:13.694Z,1.30
2023-01-26T12:16:43.467Z,1.40
2023-01-26T12:19:34.306Z,1.50
2023-01-26T12:22:10.750Z,1.30
2023-01-26T12:25:17.958Z,1.20
2023-01-26T12:27:37.124Z,1.10
2023-01-26T12:30:24.125Z,1.20
2023-01-26T12:32:51.650Z,1.30
2023-01-26T12:35:49.141Z,1.30
2023-01-26T12:38:19.958Z,1.20
2023-01-26T12:40:52.634Z,1.10
2023-01-26T12:43:44.456Z,0.90
2023-01-26T12:46:13.889Z,0.80
2023-01-26T12:48:48.656Z,0.70
2023-01-26T12:51:29.888Z,0.90
2023-01-26T12:54:16.693Z,0.90
2023-01-26T12:56:47.961Z,1.00
2023-01-26T12:59:46.950Z,1.10
2023-01-26T13:02:27.851Z,1.10
2023-01-26T13:04:55.770Z,1.20
2023-01-26T13:07:34.125Z,1.30
2023-01-26T13:10:17.579Z,1.40
2023-01-26T13:12:59.057Z,1.40
2023-01-26T13:15:28.738Z,1.50
2023-01-26T13:17:56.545Z,1.50
2023-01-26T13:20:24.935Z,1.50
2023-01-26T13:22:54.185Z,1.40
2023-01-26T13:25:32.208Z,1.20
2023-01-26T13:28:03.835Z,1.30
2023-01-26T13:30:44.816Z,1.40
2023-01-26T13:33:13.595Z,1.20
2023-01-26T13:35:40.643Z,1.20
2023-01-26T13:38:33.257Z,1.20
2023-01-26T13:41:00.310Z,1.20
2023-01-26T13:43:45.923Z,1.30
2023-01-26T13:46:23.976Z,1.20
2023-01-26T13:48:52.969Z,1.10
2023-01-26T13:51:30.010Z,1.10
2023-01-26T13:54:14.230Z,1.20
2023-01-26T13:56:43.016Z,1.10
2023-01-26T13:59:19.433Z,1.10
2023-01-26T14:01:48.524Z,1.00
2023-01-26T14:04:21.391Z,0.90
2023-01-26T14:07:08.690Z,1.00
2023-01-26T14:09:50.968Z,1.00
2023-01-26T14:12:27.700Z,1.10
2023-01-26T14:15:00.235Z,1.20
2023-01-26T14:17:32.289Z,1.40
2023-01-26T14:20:00.336Z,1.50
2023-01-26T14:22:27.659Z,1.50
2023-01-26T14:24:54.782Z,1.60
2023-01-26T14:27:36.380Z,1.80
2023-01-26T14:30:20.550Z,1.90
2023-01-26T14:32:47.962Z,1.90
2023-01-26T14:35:23.267Z,1.80
2023-01-26T14:37:50.644Z,1.90
2023-01-26T14:40:23.819Z,1.90
2023-01-26T14:42:52.950Z,1.90
2023-01-26T14:45:27.742Z,1.90
2023-01-26T14:47:55.034Z,1.90
2023-01-26T14:50:28.172Z,1.80
2023-01-26T14:52:55.010Z,1.70
2023-01-26T14:55:32.071Z,1.50
2023-01-26T14:58:00.890Z,1.50
2023-01-26T15:00:32.729Z,1.50
2023-01-26T15:03:04.337Z,1.60
2023-01-26T15:05:36.604Z,1.60
2023-01-26T15:08:19.881Z,1.70
2023-01-26T15:11:18.449Z,1.70
2023-01-26T15:13:49.398Z,1.60
2023-01-26T15:16:24.596Z,1.50
2023-01-26T15:19:08.368Z,1.40
2023-01-26T15:21:45.372Z,1.30
2023-01-26T15:24:14.451Z,1.20
2023-01-26T15:26:42.975Z,1.30
2023-01-26T15:29:28.451Z,1.20
2023-01-26T15:31:56.938Z,1.30
2023-01-26T15:34:42.370Z,1.30
2023-01-26T15:37:28.896Z,1.30
2023-01-26T15:39:55.477Z,1.30
2023-01-26T15:42:28.838Z,1.40
2023-01-26T15:44:55.696Z,1.50
2023-01-26T15:47:22.453Z,1.40
2023-01-26T15:49:48.898Z,1.30
2023-01-26T15:52:17.310Z,1.20
2023-01-26T15:54:44.085Z,1.10
2023-01-26T15:57:12.356Z,1.10
2023-01-26T15:59:39.876Z,1.00
2023-01-26T16:02:17.821Z,0.90
2023-01-26T16:04:44.696Z,1.00
2023-01-26T16:07:16.129Z,1.00
2023-01-26T16:09:43.299Z,1.00
2023-01-26T16:12:30.427Z,1.00
2023-01-26T16:14:57.981Z,1.10
2023-01-26T16:17:24.487Z,1.00
2023-01-26T16:19:50.961Z,1.00
2023-01-26T16:22:17.489Z,0.90
2023-01-26T16:24:43.944Z,0.80
2023-01-26T16:27:10.379Z,0.80
2023-01-26T16:29:36.839Z,0.80
2023-01-26T16:32:26.900Z,0.80
2023-01-26T16:34:53.385Z,0.90
2023-01-26T16:37:19.874Z,1.00
2023-01-26T16:39:46.284Z,1.00
2023-01-26T16:42:17.909Z,1.00
2023-01-26T16:44:45.176Z,1.20
2023-01-26T16:47:11.623Z,1.20
2023-01-26T16:49:38.464Z,1.20
2023-01-26T16:52:05.007Z,1.10
2023-01-26T16:54:31.510Z,1.20
2023-01-26T16:56:58.170Z,1.40
2023-01-26T16:59:24.617Z,1.50
2023-01-26T17:01:51.224Z,1.40
2023-01-26T17:04:17.723Z,1.50
2023-01-26T17:06:44.147Z,1.50
2023-01-26T17:09:10.627Z,1.50
2023-01-26T17:11:37.202Z,1.50
2023-01-26T17:14:03.855Z,1.50
2023-01-26T17:16:31.912Z,1.50
2023-01-26T17:18:58.721Z,1.50
2023-01-26T17:21:26.695Z,1.50
2023-01-26T17:23:55.849Z,1.60
2023-01-26T17:26:23.125Z,1.60
2023-01-26T17:28:52.905Z,1.70
2023-01-26T17:31:21.382Z,1.80
2023-01-26T17:33:49.763Z,1.70
2023-01-26T17:36:17.504Z,1.70
2023-01-26T17:38:44.579Z,1.70
2023-01-26T17:41:11.170Z,1.80
2023-01-26T17:43:37.625Z,1.80
2023-01-26T17:46:06.927Z,1.80
2023-01-26T17:48:35.210Z,1.80
2023-01-26T17:51:05.069Z,1.80
2023-01-26T17:53:31.479Z,1.80
2023-01-26T17:55:57.878Z,1.80
2023-01-26T17:58:24.363Z,1.70
2023-01-26T18:00:50.903Z,1.70
2023-01-26T18:03:17.395Z,1.60
2023-01-26T18:05:51.704Z,1.70
2023-01-26T18:08:18.526Z,1.70
2023-01-26T18:10:45.106Z,1.70
2023-01-26T18:13:11.675Z,1.80
2023-01-26T18:15:38.133Z,1.60
2023-01-26T18:18:06.464Z,1.70
2023-01-26T18:20:33.291Z,1.70
2023-01-26T18:23:00.296Z,1.80
2023-01-26T18:25:26.789Z,1.80
2023-01-26T18:27:54.308Z,1.90
2023-01-26T18:30:20.782Z,1.90
2023-01-26T18:32:47.229Z,1.90
2023-01-26T18:35:14.085Z,1.90
2023-01-26T18:37:40.536Z,1.90
2023-01-26T18:40:08.215Z,1.90
2023-01-26T18:42:34.660Z,1.90
2023-01-26T18:45:01.313Z,1.90
2023-01-26T18:47:28.786Z,1.90
2023-01-26T18:49:55.431Z,1.90
2023-01-26T18:52:22.476Z,1.90
2023-01-26T18:54:48.959Z,2.00
2023-01-26T18:57:15.942Z,2.00
2023-01-26T18:59:42.493Z,2.00
2023-01-26T19:02:13.341Z,1.90
2023-01-26T19:04:41.129Z,1.80
2023-01-26T19:07:09.994Z,1.70
2023-01-26T19:09:37.092Z,1.60
2023-01-26T19:12:05.442Z,1.60
2023-01-26T19:14:32.472Z,1.60
2023-01-26T19:17:00.123Z,1.60
2023-01-26T19:19:27.067Z,1.50
2023-01-26T19:21:53.485Z,1.60
2023-01-26T19:24:19.951Z,1.60
2023-01-26T19:26:46.453Z,1.70
2023-01-26T19:29:12.971Z,1.70
2023-01-26T19:31:39.656Z,1.80
2023-01-26T19:34:16.883Z,1.80
2023-01-26T19:36:43.555Z,1.80
2023-01-26T19:39:11.424Z,1.80
2023-01-26T19:41:39.012Z,1.80
2023-01-26T19:44:06.174Z,1.80
2023-01-26T19:46:32.801Z,1.80
2023-01-26T19:48:59.447Z,1.80
2023-01-26T19:51:26.922Z,1.80
2023-01-26T19:53:56.232Z,1.80
2023-01-26T19:56:28.662Z,1.80
2023-01-26T19:58:57.601Z,1.80
2023-01-26T20:01:25.438Z,1.80
2023-01-26T20:03:59.027Z,1.80
2023-01-26T20:06:28.630Z,1.80
2023-01-26T20:08:56.141Z,1.80
2023-01-26T20:11:24.895Z,1.80
2023-01-26T20:14:01.725Z,1.80
2023-01-26T20:16:29.126Z,1.70
2023-01-26T20:18:56.654Z,1.70
2023-01-26T20:21:23.993Z,1.70
2023-01-26T20:23:55.853Z,1.70
2023-01-26T20:26:24.589Z,1.70
2023-01-26T20:28:52.168Z,1.70
2023-01-26T20:31:21.643Z,1.70
2023-01-26T20:33:49.694Z,1.80
2023-01-26T20:36:22.714Z,1.80
2023-01-26T20:38:49.665Z,1.80
2023-01-26T20:41:19.856Z,1.80
2023-01-26T20:43:59.947Z,1.80
2023-01-26T20:46:30.616Z,1.80
2023-01-26T20:48:57.183Z,1.80
2023-01-26T20:51:29.431Z,1.90
2023-01-26T20:53:56.524Z,1.90
2023-01-26T20:56:23.261Z,1.90
2023-01-26T20:58:53.069Z,1.90
2023-01-26T21:01:20.227Z,1.90
2023-01-26T21:03:46.738Z,2.00
2023-01-26T21:06:15.945Z,2.00
2023-01-26T21:08:42.610Z,2.10
2023-01-26T21:11:12.749Z,2.00
2023-01-26T21:13:42.691Z,2.00
2023-01-26T21:16:12.197Z,2.00
2023-01-26T21:18:39.110Z,2.00
2023-01-26T21:21:08.458Z,1.90
2023-01-26T21:23:35.141Z,1.90
2023-01-26T21:26:04.443Z,1.90
2023-01-26T21:28:31.181Z,2.00
2023-01-26T21:31:16.353Z,2.00
2023-01-26T21:33:45.212Z,1.90
2023-01-26T21:36:14.877Z,1.80
2023-01-26T21:38:43.763Z,1.90
2023-01-26T21:41:31.418Z,1.90
2023-01-26T21:43:59.294Z,1.90
2023-01-26T21:46:26.125Z,2.00
2023-01-26T21:48:52.766Z,2.00
2023-01-26T21:51:38.348Z,2.00
2023-01-26T21:54:08.070Z,2.10
2023-01-26T21:56:35.257Z,2.00
2023-01-26T21:59:04.172Z,2.10
2023-01-26T22:01:45.247Z,2.10
2023-01-26T22:04:15.298Z,2.00
2023-01-26T22:06:42.198Z,2.00
2023-01-26T22:09:11.151Z,1.90
2023-01-26T22:11:38.253Z,1.90
2023-01-26T22:14:05.661Z,1.90
2023-01-26T22:16:32.778Z,1.90
2023-01-26T22:18:59.540Z,2.00
2023-01-26T22:21:26.365Z,2.00
2023-01-26T22:23:54.057Z,2.10
2023-01-26T22:26:21.985Z,2.10
2023-01-26T22:28:53.460Z,2.10
2023-01-26T22:31:22.943Z,2.00
2023-01-26T22:33:50.137Z,2.10
2023-01-26T22:36:17.042Z,2.10
2023-01-26T22:38:43.530Z,2.00
2023-01-26T22:41:16.293Z,1.90
2023-01-26T22:43:42.873Z,1.90
2023-01-26T22:46:11.656Z,2.00
2023-01-26T22:48:38.739Z,2.00
2023-01-26T22:51:08.158Z,1.90
2023-01-26T22:53:35.055Z,1.90
2023-01-26T22:56:02.213Z,1.90
2023-01-26T22:58:28.746Z,1.90
2023-01-26T23:01:04.768Z,1.90
2023-01-26T23:03:31.464Z,1.90
2023-01-26T23:06:02.570Z,1.90
2023-01-26T23:08:29.974Z,1.90
2023-01-26T23:11:06.888Z,2.00
2023-01-26T23:13:34.507Z,2.00
2023-01-26T23:16:01.598Z,1.90
2023-01-26T23:18:28.341Z,2.00
2023-01-26T23:20:55.714Z,2.00
2023-01-26T23:23:25.089Z,2.00
2023-01-26T23:25:51.750Z,1.90
2023-01-26T23:28:19.583Z,1.80
2023-01-26T23:30:47.411Z,1.80
2023-01-26T23:33:14.102Z,1.90
2023-01-26T23:35:41.000Z,1.90
2023-01-26T23:38:07.838Z,2.00
2023-01-26T23:40:35.729Z,2.00
2023-01-26T23:43:15.865Z,2.00
2023-01-26T23:45:45.005Z,2.00
2023-01-26T23:48:11.965Z,2.00
2023-01-26T23:50:38.849Z,2.00
2023-01-26T23:53:05.862Z,2.00
2023-01-26T23:55:32.375Z,2.00
2023-01-26T23:57:58.878Z,2.00
